Time;durP1;ratioP1;P1;durP2;ratioP2;P2;SDS_P1;SDS_P2;PMS_P1;PMS_P2;Temp;Humidity;BMP_temperature;BMP_pressure;BME280_temperature;BME280_humidity;BME280_pressure;Samples;Min_cycle;Max_cycle;Signal;HPM_P1;HPM_P2
2023/12/06 00:00:06;;;;;;;9.85;7.15;;;;;;;;;;5048795;28;20056;-68
2023/12/06 00:02:32;;;;;;;16.65;9.55;;;;;;;;;;5050281;28;20083;-69
2023/12/06 00:04:59;;;;;;;11.70;8.60;;;;;;;;;;5044603;28;20044;-68
2023/12/06 00:07:24;;;;;;;15.32;8.48;;;;;;;;;;5050884;28;20127;-68
2023/12/06 00:09:49;;;;;;;12.95;9.30;;;;;;;;;;5053863;28;20757;-68
2023/12/06 00:12:15;;;;;;;11.38;8.48;;;;;;;;;;5048319;28;20055;-68
2023/12/06 00:14:40;;;;;;;14.68;10.65;;;;;;;;;;5053206;28;20040;-68
2023/12/06 00:17:06;;;;;;;12.90;8.07;;;;;;;;;;5049024;28;20048;-68
2023/12/06 00:19:31;;;;;;;13.73;9.32;;;;;;;;;;5052281;28;20491;-68
2023/12/06 00:21:56;;;;;;;10.32;7.70;;;;;;;;;;5051488;28;20044;-68
2023/12/06 00:24:22;;;;;;;14.15;8.55;;;;;;;;;;5052074;28;20059;-68
2023/12/06 00:26:48;;;;;;;13.05;7.53;;;;;;;;;;5043863;28;21126;-68
2023/12/06 00:29:13;;;;;;;9.02;6.93;;;;;;;;;;5046951;28;20044;-68
2023/12/06 00:31:39;;;;;;;8.82;6.22;;;;;;;;;;5039582;28;20099;-67
2023/12/06 00:34:04;;;;;;;9.88;6.40;;;;;;;;;;5046740;28;20079;-67
2023/12/06 00:36:30;;;;;;;10.65;6.68;;;;;;;;;;5057046;28;20517;-67
2023/12/06 00:38:55;;;;;;;10.23;7.68;;;;;;;;;;5044236;28;20064;-67
2023/12/06 00:41:23;;;;;;;13.90;9.48;;;;;;;;;;5023580;28;20072;-67
2023/12/06 00:43:51;;;;;;;8.25;6.68;;;;;;;;;;5041186;28;20045;-67
2023/12/06 00:46:17;;;;;;;9.32;6.90;;;;;;;;;;5050416;28;20044;-68
2023/12/06 00:48:43;;;;;;;9.32;7.70;;;;;;;;;;5046971;28;20054;-68
2023/12/06 00:51:08;;;;;;;10.20;6.75;;;;;;;;;;5040163;28;20047;-68
2023/12/06 00:53:34;;;;;;;10.43;6.93;;;;;;;;;;5045151;28;20040;-68
2023/12/06 00:55:59;;;;;;;8.75;6.57;;;;;;;;;;5052861;28;20032;-67
2023/12/06 00:58:24;;;;;;;9.70;6.85;;;;;;;;;;5053719;28;20164;-67
2023/12/06 01:00:50;;;;;;;9.05;6.65;;;;;;;;;;5038898;28;20110;-68
2023/12/06 01:03:15;;;;;;;10.13;6.90;;;;;;;;;;5044176;28;20072;-68
2023/12/06 01:05:41;;;;;;;13.98;8.35;;;;;;;;;;5042601;28;20036;-68
2023/12/06 01:08:06;;;;;;;11.77;7.25;;;;;;;;;;5045996;28;20131;-67
2023/12/06 01:10:32;;;;;;;9.40;7.25;;;;;;;;;;5049370;28;20049;-68
2023/12/06 01:12:57;;;;;;;9.40;6.55;;;;;;;;;;5045720;28;20403;-68
2023/12/06 01:15:22;;;;;;;8.73;7.10;;;;;;;;;;5052577;28;20074;-67
2023/12/06 01:17:49;;;;;;;7.60;6.20;;;;;;;;;;5052530;28;20045;-67
2023/12/06 01:20:14;;;;;;;8.10;6.25;;;;;;;;;;5049409;28;20491;-68
2023/12/06 01:22:40;;;;;;;11.23;6.75;;;;;;;;;;5046060;28;20041;-68
2023/12/06 01:25:06;;;;;;;6.93;6.22;;;;;;;;;;5053074;28;21094;-68
2023/12/06 01:27:31;;;;;;;8.63;6.80;;;;;;;;;;5051174;28;20040;-67
2023/12/06 01:29:57;;;;;;;7.80;5.82;;;;;;;;;;5049933;28;20072;-68
2023/12/06 01:32:22;;;;;;;10.23;7.13;;;;;;;;;;5044096;28;20048;-67
2023/12/06 01:34:47;;;;;;;7.50;6.32;;;;;;;;;;5045100;28;20045;-68
2023/12/06 01:37:13;;;;;;;7.00;5.60;;;;;;;;;;5038374;28;20049;-68
2023/12/06 01:39:38;;;;;;;7.50;5.85;;;;;;;;;;5049153;28;20091;-68
2023/12/06 01:42:04;;;;;;;5.82;5.18;;;;;;;;;;5055815;28;20636;-68
2023/12/06 01:44:29;;;;;;;6.20;5.13;;;;;;;;;;5053663;28;20041;-68
2023/12/06 01:46:54;;;;;;;8.73;6.25;;;;;;;;;;5050754;28;20521;-67
2023/12/06 01:49:21;;;;;;;6.38;5.03;;;;;;;;;;5044538;28;20955;-68
2023/12/06 01:51:46;;;;;;;6.55;4.75;;;;;;;;;;5041319;28;20106;-68
2023/12/06 01:54:12;;;;;;;5.68;4.45;;;;;;;;;;5057079;28;20057;-68
2023/12/06 01:56:38;;;;;;;7.85;6.18;;;;;;;;;;5052610;28;20123;-69
2023/12/06 01:59:07;;;;;;;8.27;5.40;;;;;;;;;;5061146;28;20048;-68
2023/12/06 02:01:34;;;;;;;4.32;3.63;;;;;;;;;;5051976;28;20047;-68
2023/12/06 02:03:59;;;;;;;6.18;5.13;;;;;;;;;;5056992;28;20410;-68
2023/12/06 02:06:25;;;;;;;5.53;4.68;;;;;;;;;;5056110;28;20507;-68
2023/12/06 02:08:52;;;;;;;6.93;4.97;;;;;;;;;;5054150;28;20170;-68
2023/12/06 02:11:17;;;;;;;5.35;4.13;;;;;;;;;;5043456;28;20052;-68
2023/12/06 02:13:43;;;;;;;5.60;4.00;;;;;;;;;;5043602;28;20040;-68
2023/12/06 02:16:09;;;;;;;8.75;4.40;;;;;;;;;;5047099;28;20037;-68
2023/12/06 02:18:35;;;;;;;6.10;4.28;;;;;;;;;;5036832;28;20041;-68
2023/12/06 02:21:01;;;;;;;6.82;4.85;;;;;;;;;;5022883;28;20079;-68
2023/12/06 02:23:33;;;;;;;4.45;4.03;;;;;;;;;;5021467;28;20041;-68
2023/12/06 02:25:59;;;;;;;5.93;4.72;;;;;;;;;;5028101;28;20073;-68
2023/12/06 02:28:24;;;;;;;6.53;4.18;;;;;;;;;;5023906;28;20721;-68
2023/12/06 02:30:50;;;;;;;4.60;3.75;;;;;;;;;;5021586;28;20468;-68
2023/12/06 02:33:15;;;;;;;4.53;3.08;;;;;;;;;;5022322;28;20144;-68
2023/12/06 02:35:50;;;;;;;3.13;2.80;;;;;;;;;;5021560;28;20551;-68
2023/12/06 02:38:18;;;;;;;3.70;2.60;;;;;;;;;;5025080;28;20045;-67
2023/12/06 02:40:46;;;;;;;2.85;2.60;;;;;;;;;;5025966;28;20039;-67
2023/12/06 02:43:13;;;;;;;4.22;2.13;;;;;;;;;;5022396;28;20061;-68
2023/12/06 02:45:38;;;;;;;2.65;1.77;;;;;;;;;;5021769;28;20042;-68
2023/12/06 02:48:07;;;;;;;3.35;2.10;;;;;;;;;;5023395;28;20056;-68
2023/12/06 02:50:33;;;;;;;2.30;2.03;;;;;;;;;;5021430;28;20148;-68
2023/12/06 02:52:58;;;;;;;2.35;2.15;;;;;;;;;;5021991;28;20120;-68
2023/12/06 02:55:23;;;;;;;2.10;1.90;;;;;;;;;;5022842;28;21141;-68
2023/12/06 02:57:49;;;;;;;2.50;2.00;;;;;;;;;;5022627;28;20117;-68
2023/12/06 03:00:14;;;;;;;2.38;2.03;;;;;;;;;;5023883;28;20037;-68
2023/12/06 03:02:40;;;;;;;0.93;0.90;;;;;;;;;;5023591;28;20511;-68
2023/12/06 03:05:06;;;;;;;5.22;2.25;;;;;;;;;;5021377;28;20412;-67
2023/12/06 03:07:31;;;;;;;2.38;1.90;;;;;;;;;;5021527;28;20049;-67
2023/12/06 03:09:56;;;;;;;2.05;1.88;;;;;;;;;;5021290;28;20508;-67
2023/12/06 03:12:22;;;;;;;1.95;1.85;;;;;;;;;;5021935;28;20099;-68
2023/12/06 03:14:47;;;;;;;2.17;1.98;;;;;;;;;;5024508;28;20111;-67
2023/12/06 03:17:12;;;;;;;2.95;1.80;;;;;;;;;;5021059;28;20507;-67
2023/12/06 03:19:38;;;;;;;1.52;1.42;;;;;;;;;;5021879;28;20183;-68
2023/12/06 03:22:03;;;;;;;1.38;1.27;;;;;;;;;;5021455;28;20090;-68
2023/12/06 03:24:29;;;;;;;2.90;1.50;;;;;;;;;;5021693;28;20049;-67
2023/12/06 03:26:54;;;;;;;2.08;1.88;;;;;;;;;;5025287;28;20080;-67
2023/12/06 03:29:19;;;;;;;1.42;1.33;;;;;;;;;;5021808;28;20071;-67
2023/12/06 03:31:45;;;;;;;1.83;1.73;;;;;;;;;;5022199;28;20407;-68
2023/12/06 03:34:10;;;;;;;1.60;1.50;;;;;;;;;;5020626;28;20049;-67
2023/12/06 03:36:36;;;;;;;1.45;1.35;;;;;;;;;;5019917;28;20146;-67
2023/12/06 03:39:01;;;;;;;1.23;1.13;;;;;;;;;;5020912;28;20057;-66
2023/12/06 03:41:26;;;;;;;1.30;1.20;;;;;;;;;;5020530;28;20057;-67
2023/12/06 03:43:52;;;;;;;1.02;1.02;;;;;;;;;;5020904;28;20419;-67
2023/12/06 03:46:17;;;;;;;1.35;1.25;;;;;;;;;;5022122;28;20048;-66
2023/12/06 03:48:43;;;;;;;0.95;0.95;;;;;;;;;;5003185;28;20981;-66
2023/12/06 03:51:08;;;;;;;0.93;0.93;;;;;;;;;;5020785;28;20478;-66
2023/12/06 03:53:33;;;;;;;1.00;0.90;;;;;;;;;;5020593;28;20152;-66
2023/12/06 03:55:59;;;;;;;5.60;0.95;;;;;;;;;;5024564;28;20042;-66
2023/12/06 03:58:24;;;;;;;0.60;0.60;;;;;;;;;;5035254;28;20713;-67
2023/12/06 04:00:49;;;;;;;0.70;0.70;;;;;;;;;;5036383;28;20064;-67
2023/12/06 04:03:15;;;;;;;1.98;0.65;;;;;;;;;;5038866;28;20617;-68
2023/12/06 04:05:42;;;;;;;0.70;0.70;;;;;;;;;;5039099;28;20048;-68
2023/12/06 04:08:08;;;;;;;1.00;0.90;;;;;;;;;;5038842;28;20102;-68
2023/12/06 04:10:33;;;;;;;1.25;0.65;;;;;;;;;;5038412;28;20040;-72
2023/12/06 04:12:59;;;;;;;0.73;0.73;;;;;;;;;;5037594;28;20068;-68
2023/12/06 04:15:24;;;;;;;0.52;0.52;;;;;;;;;;5038215;28;20687;-66
2023/12/06 04:17:50;;;;;;;0.70;0.70;;;;;;;;;;5039377;28;20041;-67
2023/12/06 04:20:15;;;;;;;0.60;0.60;;;;;;;;;;5039346;28;20098;-66
2023/12/06 04:22:40;;;;;;;0.50;0.50;;;;;;;;;;5033284;28;20040;-67
2023/12/06 04:25:06;;;;;;;0.57;0.50;;;;;;;;;;5038076;28;20040;-67
2023/12/06 04:27:31;;;;;;;0.70;0.70;;;;;;;;;;5038627;28;20060;-67
2023/12/06 04:29:57;;;;;;;1.35;0.90;;;;;;;;;;5038987;28;20592;-67
2023/12/06 04:32:22;;;;;;;0.50;0.50;;;;;;;;;;5038714;28;20083;-67
2023/12/06 04:34:53;;;;;;;0.70;0.70;;;;;;;;;;5037993;28;20040;-66
2023/12/06 04:37:18;;;;;;;0.60;0.60;;;;;;;;;;5038204;28;20076;-67
2023/12/06 04:39:43;;;;;;;0.82;0.70;;;;;;;;;;5037478;28;20160;-67
2023/12/06 04:42:09;;;;;;;1.95;1.02;;;;;;;;;;5037548;28;20045;-67
2023/12/06 04:44:36;;;;;;;0.50;0.50;;;;;;;;;;5037523;28;20048;-66
2023/12/06 04:47:01;;;;;;;0.73;0.73;;;;;;;;;;5038340;28;20059;-66
2023/12/06 04:49:26;;;;;;;0.60;0.60;;;;;;;;;;5037889;28;20375;-65
2023/12/06 04:51:52;;;;;;;0.70;0.70;;;;;;;;;;5038175;28;20037;-65
2023/12/06 04:54:17;;;;;;;0.60;0.60;;;;;;;;;;5038501;28;20131;-66
2023/12/06 04:56:43;;;;;;;0.40;0.40;;;;;;;;;;5036282;28;20044;-67
2023/12/06 04:59:08;;;;;;;0.88;0.88;;;;;;;;;;5037970;28;20499;-67
2023/12/06 05:01:33;;;;;;;1.13;0.63;;;;;;;;;;5037937;28;20198;-67
2023/12/06 05:03:59;;;;;;;0.50;0.50;;;;;;;;;;5038101;28;20040;-68
2023/12/06 05:06:24;;;;;;;0.60;0.60;;;;;;;;;;5038156;28;20153;-67
2023/12/06 05:08:50;;;;;;;0.43;0.40;;;;;;;;;;5038184;28;20041;-68
2023/12/06 05:11:15;;;;;;;0.70;0.70;;;;;;;;;;5037963;28;20080;-68
2023/12/06 05:13:40;;;;;;;1.20;0.77;;;;;;;;;;5038208;28;22730;-69
2023/12/06 05:16:06;;;;;;;0.50;0.50;;;;;;;;;;5038685;28;20128;-68
2023/12/06 05:18:31;;;;;;;0.80;0.80;;;;;;;;;;5037372;28;20064;-68
2023/12/06 05:20:57;;;;;;;0.88;0.60;;;;;;;;;;5036155;28;20507;-68
2023/12/06 05:23:22;;;;;;;0.50;0.50;;;;;;;;;;5036605;28;20052;-68
2023/12/06 05:25:48;;;;;;;0.70;0.70;;;;;;;;;;5036574;28;20133;-68
2023/12/06 05:28:13;;;;;;;0.68;0.68;;;;;;;;;;5038085;28;20124;-69
2023/12/06 05:30:39;;;;;;;2.92;0.73;;;;;;;;;;5035364;28;20048;-69
2023/12/06 05:33:04;;;;;;;1.08;0.80;;;;;;;;;;5037020;28;20136;-69
2023/12/06 05:35:30;;;;;;;0.52;0.52;;;;;;;;;;5037614;28;20053;-69
2023/12/06 05:37:56;;;;;;;0.50;0.50;;;;;;;;;;5037926;28;20053;-69
2023/12/06 05:40:21;;;;;;;0.60;0.60;;;;;;;;;;5037580;28;20045;-69
2023/12/06 05:42:47;;;;;;;0.60;0.60;;;;;;;;;;5036148;28;20071;-69
2023/12/06 05:45:12;;;;;;;0.60;0.60;;;;;;;;;;5037880;28;20052;-74
2023/12/06 05:47:38;;;;;;;0.60;0.60;;;;;;;;;;5037410;28;20772;-71
2023/12/06 05:50:04;;;;;;;0.75;0.75;;;;;;;;;;5037388;28;20469;-71
2023/12/06 05:52:29;;;;;;;0.60;0.60;;;;;;;;;;5036630;28;20165;-72
2023/12/06 05:54:54;;;;;;;0.63;0.63;;;;;;;;;;5037325;28;20091;-73
2023/12/06 05:57:20;;;;;;;0.80;0.80;;;;;;;;;;5037310;28;20044;-70
2023/12/06 05:59:45;;;;;;;0.70;0.60;;;;;;;;;;5036332;28;20045;-69
2023/12/06 06:02:11;;;;;;;1.15;0.68;;;;;;;;;;5036801;28;20565;-69
2023/12/06 06:04:36;;;;;;;0.77;0.77;;;;;;;;;;5034253;28;20055;-69
2023/12/06 06:07:02;;;;;;;1.35;0.80;;;;;;;;;;5037851;28;20122;-70
2023/12/06 06:09:27;;;;;;;0.60;0.60;;;;;;;;;;5037004;28;20049;-68
2023/12/06 06:11:53;;;;;;;0.50;0.50;;;;;;;;;;5037345;28;20060;-70
2023/12/06 06:14:18;;;;;;;1.75;0.93;;;;;;;;;;5035995;28;20036;-70
2023/12/06 06:16:43;;;;;;;3.50;1.15;;;;;;;;;;5036297;28;20054;-68
2023/12/06 06:19:09;;;;;;;0.70;0.70;;;;;;;;;;5037430;28;20048;-70
2023/12/06 06:21:34;;;;;;;0.85;0.85;;;;;;;;;;5036226;28;20037;-71
2023/12/06 06:23:59;;;;;;;0.60;0.60;;;;;;;;;;5034566;28;20468;-68
2023/12/06 06:26:25;;;;;;;1.02;1.00;;;;;;;;;;5036326;28;20041;-70
2023/12/06 06:28:50;;;;;;;1.58;1.05;;;;;;;;;;5036288;28;20045;-68
2023/12/06 06:31:16;;;;;;;2.92;0.85;;;;;;;;;;5038934;28;20045;-68
2023/12/06 06:33:41;;;;;;;1.25;0.90;;;;;;;;;;5039930;28;20033;-68
2023/12/06 06:36:07;;;;;;;0.90;0.90;;;;;;;;;;5039805;28;20514;-69
2023/12/06 06:38:32;;;;;;;1.90;1.30;;;;;;;;;;5037799;28;20048;-67
2023/12/06 06:40:58;;;;;;;0.88;0.88;;;;;;;;;;5039755;28;20111;-68
2023/12/06 06:43:23;;;;;;;1.30;1.15;;;;;;;;;;5041006;28;20052;-67
2023/12/06 06:45:48;;;;;;;1.23;1.02;;;;;;;;;;5040610;28;20041;-67
2023/12/06 06:48:14;;;;;;;0.90;0.90;;;;;;;;;;5040536;28;20795;-67
2023/12/06 06:50:39;;;;;;;1.25;0.80;;;;;;;;;;5039609;28;20045;-70
2023/12/06 06:53:05;;;;;;;6.00;0.90;;;;;;;;;;5040858;28;20625;-68
2023/12/06 06:55:31;;;;;;;1.38;0.90;;;;;;;;;;5040436;28;20166;-68
2023/12/06 06:58:02;;;;;;;0.93;0.93;;;;;;;;;;5041065;28;20805;-68
2023/12/06 07:00:28;;;;;;;0.90;0.90;;;;;;;;;;5039421;28;20507;-68
2023/12/06 07:02:53;;;;;;;0.80;0.80;;;;;;;;;;5039803;28;20041;-68
2023/12/06 07:05:19;;;;;;;0.88;0.88;;;;;;;;;;5041082;28;20976;-70
2023/12/06 07:07:44;;;;;;;1.25;1.10;;;;;;;;;;5040263;28;20071;-69
2023/12/06 07:10:09;;;;;;;0.80;0.80;;;;;;;;;;5040171;28;20075;-69
2023/12/06 07:12:39;;;;;;;2.78;1.20;;;;;;;;;;5039608;28;20059;-69
2023/12/06 07:15:05;;;;;;;0.95;0.95;;;;;;;;;;5038861;28;20128;-70
2023/12/06 07:17:31;;;;;;;1.92;0.98;;;;;;;;;;5040189;28;20052;-71
2023/12/06 07:19:57;;;;;;;3.17;0.70;;;;;;;;;;5040348;28;20055;-69
2023/12/06 07:22:23;;;;;;;2.08;0.80;;;;;;;;;;5039730;28;20079;-70
2023/12/06 07:24:48;;;;;;;1.67;1.05;;;;;;;;;;5039157;28;20094;-67
2023/12/06 07:27:14;;;;;;;0.70;0.70;;;;;;;;;;5040234;28;20049;-70
2023/12/06 07:29:41;;;;;;;0.80;0.73;;;;;;;;;;5039965;28;20069;-68
2023/12/06 07:32:07;;;;;;;1.45;1.17;;;;;;;;;;5039036;28;20040;-68
2023/12/06 07:34:33;;;;;;;2.00;0.80;;;;;;;;;;5039733;28;21021;-68
2023/12/06 07:36:58;;;;;;;0.90;0.90;;;;;;;;;;5039552;28;20075;-69
2023/12/06 07:39:23;;;;;;;0.77;0.77;;;;;;;;;;5040279;28;20146;-70
2023/12/06 07:41:49;;;;;;;1.10;1.00;;;;;;;;;;5038830;28;20049;-67
2023/12/06 07:44:17;;;;;;;1.80;0.60;;;;;;;;;;5038704;28;20542;-70
2023/12/06 07:46:43;;;;;;;1.20;1.10;;;;;;;;;;5039235;28;20040;-69
2023/12/06 07:49:08;;;;;;;1.45;1.05;;;;;;;;;;5039823;28;20045;-69
2023/12/06 07:51:36;;;;;;;1.75;1.13;;;;;;;;;;5039499;28;20041;-69
2023/12/06 07:54:01;;;;;;;0.88;0.88;;;;;;;;;;5039302;28;20094;-68
2023/12/06 07:56:27;;;;;;;0.80;0.80;;;;;;;;;;5038397;28;20033;-70
2023/12/06 07:58:56;;;;;;;2.80;1.10;;;;;;;;;;5038699;28;20399;-68
2023/12/06 08:01:23;;;;;;;1.00;1.00;;;;;;;;;;5039665;28;20041;-68
2023/12/06 08:03:49;;;;;;;1.05;0.90;;;;;;;;;;5039164;28;20143;-68
2023/12/06 08:06:15;;;;;;;1.25;1.15;;;;;;;;;;5039350;28;21041;-67
2023/12/06 08:08:41;;;;;;;3.88;1.08;;;;;;;;;;5038287;28;20105;-67
2023/12/06 08:11:06;;;;;;;1.02;1.02;;;;;;;;;;5039469;28;20049;-67
2023/12/06 08:13:31;;;;;;;0.80;0.80;;;;;;;;;;5038793;28;20052;-67
2023/12/06 08:15:57;;;;;;;1.00;1.00;;;;;;;;;;5038339;28;20037;-68
2023/12/06 08:18:22;;;;;;;2.67;0.80;;;;;;;;;;5039526;28;20079;-68
2023/12/06 08:20:47;;;;;;;2.40;1.08;;;;;;;;;;5038495;28;20044;-67
2023/12/06 08:23:13;;;;;;;0.90;0.90;;;;;;;;;;5038895;28;20049;-68
2023/12/06 08:25:40;;;;;;;1.50;1.27;;;;;;;;;;5038679;28;20083;-68
2023/12/06 08:28:05;;;;;;;1.77;1.20;;;;;;;;;;5038575;28;20041;-68
2023/12/06 08:30:31;;;;;;;0.95;0.95;;;;;;;;;;5037647;28;20069;-68
2023/12/06 08:32:57;;;;;;;0.95;0.88;;;;;;;;;;5038196;28;20454;-67
2023/12/06 08:35:22;;;;;;;1.20;0.80;;;;;;;;;;5038857;28;20052;-67
2023/12/06 08:37:48;;;;;;;5.03;0.90;;;;;;;;;;5037782;28;20065;-68
2023/12/06 08:40:13;;;;;;;1.85;0.75;;;;;;;;;;5038928;28;20048;-68
2023/12/06 08:42:39;;;;;;;0.90;0.85;;;;;;;;;;5037895;28;20047;-67
2023/12/06 08:45:07;;;;;;;1.88;0.95;;;;;;;;;;5038557;28;20045;-67
2023/12/06 08:47:32;;;;;;;4.32;1.13;;;;;;;;;;5038508;28;20045;-68
2023/12/06 08:49:58;;;;;;;1.00;0.70;;;;;;;;;;5038016;28;20037;-67
2023/12/06 08:52:23;;;;;;;1.02;0.75;;;;;;;;;;5038428;28;20079;-69
2023/12/06 08:54:49;;;;;;;0.65;0.65;;;;;;;;;;5037803;28;20048;-68
2023/12/06 08:57:14;;;;;;;0.85;0.85;;;;;;;;;;5038555;28;20079;-68
2023/12/06 08:59:40;;;;;;;0.57;0.57;;;;;;;;;;5037516;28;20072;-68
2023/12/06 09:02:06;;;;;;;0.95;0.60;;;;;;;;;;5038468;28;20043;-68
2023/12/06 09:04:31;;;;;;;1.13;0.77;;;;;;;;;;5038700;28;20051;-68
2023/12/06 09:06:57;;;;;;;0.60;0.60;;;;;;;;;;5037538;28;20049;-69
2023/12/06 09:09:22;;;;;;;0.77;0.77;;;;;;;;;;5038473;28;20064;-68
2023/12/06 09:11:48;;;;;;;2.20;0.82;;;;;;;;;;5037169;28;20102;-68
2023/12/06 09:14:13;;;;;;;1.42;1.05;;;;;;;;;;5038207;28;20135;-68
2023/12/06 09:16:41;;;;;;;1.20;0.88;;;;;;;;;;5035925;28;20047;-68
2023/12/06 09:19:07;;;;;;;0.93;0.90;;;;;;;;;;5038383;28;20688;-68
2023/12/06 09:21:59;;;;;;;1.15;0.98;;;;;;;;;;5037517;28;20443;-68
2023/12/06 09:24:24;;;;;;;1.50;0.88;;;;;;;;;;5035823;28;20045;-67
2023/12/06 09:26:50;;;;;;;1.15;1.05;;;;;;;;;;5037458;28;20044;-67
2023/12/06 09:29:15;;;;;;;0.70;0.70;;;;;;;;;;5038405;28;20041;-67
2023/12/06 09:31:43;;;;;;;1.15;0.80;;;;;;;;;;5037583;28;20735;-68
2023/12/06 09:34:08;;;;;;;0.77;0.77;;;;;;;;;;5037274;28;20047;-67
2023/12/06 09:36:33;;;;;;;0.70;0.70;;;;;;;;;;5038155;28;20080;-67
2023/12/06 09:39:00;;;;;;;1.90;1.08;;;;;;;;;;5036905;28;20669;-68
2023/12/06 09:41:31;;;;;;;0.80;0.80;;;;;;;;;;5038260;28;20441;-65
2023/12/06 09:43:59;;;;;;;0.93;0.77;;;;;;;;;;5036726;28;20040;-66
2023/12/06 09:46:24;;;;;;;0.85;0.85;;;;;;;;;;5037999;28;20079;-66
2023/12/06 09:48:50;;;;;;;0.55;0.55;;;;;;;;;;5037137;28;20072;-66
2023/12/06 09:51:17;;;;;;;0.70;0.70;;;;;;;;;;5038228;28;20139;-66
2023/12/06 09:53:43;;;;;;;0.60;0.60;;;;;;;;;;5037329;28;20102;-66
2023/12/06 09:56:10;;;;;;;0.55;0.55;;;;;;;;;;5037059;28;20040;-66
2023/12/06 09:58:36;;;;;;;0.80;0.70;;;;;;;;;;5038097;28;20047;-66
2023/12/06 10:01:02;;;;;;;0.77;0.77;;;;;;;;;;5036525;28;20041;-68
2023/12/06 10:03:27;;;;;;;1.00;1.00;;;;;;;;;;5037730;28;20449;-67
2023/12/06 10:05:58;;;;;;;6.13;0.85;;;;;;;;;;5038172;28;20049;-67
2023/12/06 10:08:24;;;;;;;0.90;0.90;;;;;;;;;;5041900;28;20053;-67
2023/12/06 10:11:02;;;;;;;3.90;1.15;;;;;;;;;;5040647;28;20716;-68
2023/12/06 10:13:40;;;;;;;0.70;0.70;;;;;;;;;;5041657;28;20279;-68
2023/12/06 10:16:19;;;;;;;1.25;1.00;;;;;;;;;;5041741;28;20124;-68
2023/12/06 10:18:49;;;;;;;1.83;1.10;;;;;;;;;;5040610;28;20053;-67
2023/12/06 10:21:16;;;;;;;1.08;0.95;;;;;;;;;;5041710;28;20076;-68
2023/12/06 10:23:42;;;;;;;0.80;0.80;;;;;;;;;;5041125;28;20531;-67
2023/12/06 10:26:13;;;;;;;0.85;0.85;;;;;;;;;;5041432;28;20041;-68
2023/12/06 10:28:39;;;;;;;1.30;0.77;;;;;;;;;;5040058;28;20454;-68
2023/12/06 10:31:06;;;;;;;2.45;0.77;;;;;;;;;;5041523;28;20491;-67
2023/12/06 10:33:32;;;;;;;0.70;0.70;;;;;;;;;;5040976;28;20045;-68
2023/12/06 10:36:05;;;;;;;4.43;2.05;;;;;;;;;;5041220;28;20048;-68
2023/12/06 10:38:31;;;;;;;1.52;0.95;;;;;;;;;;5040431;28;20053;-69
2023/12/06 10:40:59;;;;;;;1.20;1.10;;;;;;;;;;5040441;28;20055;-68
2023/12/06 10:43:26;;;;;;;1.55;1.17;;;;;;;;;;5040872;28;20056;-68
2023/12/06 10:45:52;;;;;;;0.88;0.88;;;;;;;;;;5040759;28;20120;-69
2023/12/06 10:48:18;;;;;;;1.13;1.00;;;;;;;;;;5041293;28;20055;-68
2023/12/06 10:50:45;;;;;;;0.98;0.98;;;;;;;;;;5037827;28;20061;-69
2023/12/06 10:53:14;;;;;;;1.08;0.95;;;;;;;;;;5039261;28;20041;-68
2023/12/06 10:55:41;;;;;;;0.68;0.68;;;;;;;;;;5040785;28;20049;-69
2023/12/06 10:58:08;;;;;;;0.98;0.98;;;;;;;;;;5040715;28;20099;-68
2023/12/06 11:00:33;;;;;;;0.90;0.90;;;;;;;;;;5038583;28;20052;-68
2023/12/06 11:02:59;;;;;;;1.67;1.25;;;;;;;;;;5039849;28;20057;-68
2023/12/06 11:05:27;;;;;;;1.50;1.10;;;;;;;;;;5040862;28;20065;-68
2023/12/06 11:08:22;;;;;;;1.35;1.25;;;;;;;;;;5040572;28;20127;-69
2023/12/06 11:11:17;;;;;;;1.42;1.10;;;;;;;;;;5039842;28;20045;-68
2023/12/06 11:13:52;;;;;;;0.80;0.80;;;;;;;;;;5040051;28;20053;-69
2023/12/06 11:16:39;;;;;;;1.45;1.10;;;;;;;;;;5040208;28;20441;-68
2023/12/06 11:19:05;;;;;;;1.90;1.10;;;;;;;;;;5059168;28;20055;-69
2023/12/06 11:21:31;;;;;;;2.33;1.42;;;;;;;;;;5060470;28;20048;-69
2023/12/06 11:23:57;;;;;;;1.00;0.93;;;;;;;;;;5058979;28;20048;-69
2023/12/06 11:26:22;;;;;;;0.77;0.77;;;;;;;;;;5060552;28;20067;-68
2023/12/06 11:28:50;;;;;;;1.05;1.02;;;;;;;;;;5059181;28;20097;-68
2023/12/06 11:31:17;;;;;;;1.60;1.05;;;;;;;;;;5060303;28;20121;-69
2023/12/06 11:33:55;;;;;;;1.80;1.20;;;;;;;;;;5058983;28;20044;-68
2023/12/06 11:36:24;;;;;;;0.80;0.80;;;;;;;;;;5059625;28;20037;-68
2023/12/06 11:38:49;;;;;;;0.98;0.98;;;;;;;;;;5059103;28;20117;-69
2023/12/06 11:41:18;;;;;;;1.15;1.10;;;;;;;;;;5060214;28;20048;-69
2023/12/06 11:43:49;;;;;;;0.88;0.80;;;;;;;;;;5059911;28;20044;-69
2023/12/06 11:46:15;;;;;;;1.08;0.85;;;;;;;;;;5059503;28;20156;-68
2023/12/06 11:48:45;;;;;;;0.75;0.75;;;;;;;;;;5059486;28;20044;-69
2023/12/06 11:51:22;;;;;;;1.38;1.27;;;;;;;;;;5059899;28;20044;-69
2023/12/06 11:53:50;;;;;;;0.80;0.80;;;;;;;;;;5059223;28;20071;-68
2023/12/06 11:56:23;;;;;;;0.70;0.70;;;;;;;;;;5059460;28;20032;-69
2023/12/06 11:58:52;;;;;;;1.00;0.90;;;;;;;;;;5058546;28;20052;-69
2023/12/06 12:01:20;;;;;;;0.90;0.90;;;;;;;;;;5059549;28;20097;-68
2023/12/06 12:03:48;;;;;;;2.20;1.27;;;;;;;;;;5059198;28;20099;-69
2023/12/06 12:06:15;;;;;;;1.33;1.10;;;;;;;;;;5059128;28;20059;-68
2023/12/06 12:08:42;;;;;;;0.90;0.90;;;;;;;;;;5058623;28;20053;-69
2023/12/06 12:11:08;;;;;;;1.00;1.00;;;;;;;;;;5059198;28;20044;-69
2023/12/06 12:13:37;;;;;;;1.38;0.95;;;;;;;;;;5059406;28;20135;-68
2023/12/06 12:16:03;;;;;;;1.70;1.10;;;;;;;;;;5059098;28;20098;-68
2023/12/06 12:18:29;;;;;;;2.38;1.58;;;;;;;;;;5058988;28;20096;-68
2023/12/06 12:20:56;;;;;;;1.63;1.50;;;;;;;;;;5058714;28;20072;-68
2023/12/06 12:23:21;;;;;;;2.35;1.20;;;;;;;;;;5059028;28;20045;-68
2023/12/06 12:25:49;;;;;;;2.20;1.50;;;;;;;;;;5058842;28;20047;-69
2023/12/06 12:28:16;;;;;;;1.17;1.08;;;;;;;;;;5057880;28;20454;-67
2023/12/06 12:30:42;;;;;;;1.67;1.25;;;;;;;;;;5058643;28;20048;-68
2023/12/06 12:33:08;;;;;;;1.40;1.27;;;;;;;;;;5058514;28;20122;-68
2023/12/06 12:35:33;;;;;;;1.30;1.20;;;;;;;;;;5058320;28;20068;-69
2023/12/06 12:37:59;;;;;;;0.98;0.98;;;;;;;;;;5053996;28;20045;-70
2023/12/06 12:40:24;;;;;;;1.60;1.30;;;;;;;;;;5054336;28;20321;-69
2023/12/06 12:42:49;;;;;;;1.40;1.27;;;;;;;;;;5054454;28;26649;-69
2023/12/06 12:45:15;;;;;;;3.20;1.58;;;;;;;;;;5056502;28;20040;-69
2023/12/06 12:47:41;;;;;;;1.35;1.17;;;;;;;;;;5055259;28;20052;-69
2023/12/06 12:50:07;;;;;;;1.40;1.27;;;;;;;;;;5055003;28;20062;-69
2023/12/06 12:52:34;;;;;;;1.00;1.00;;;;;;;;;;5055707;28;20052;-69
2023/12/06 12:55:03;;;;;;;2.08;1.08;;;;;;;;;;5054420;28;20109;-69
2023/12/06 12:57:48;;;;;;;1.45;1.25;;;;;;;;;;5056698;28;20107;-69
2023/12/06 13:00:21;;;;;;;0.90;0.90;;;;;;;;;;5055402;28;20052;-70
2023/12/06 13:02:53;;;;;;;1.05;0.93;;;;;;;;;;5054908;28;20044;-69
2023/12/06 13:05:21;;;;;;;1.20;0.98;;;;;;;;;;5056782;28;20068;-69
2023/12/06 13:07:53;;;;;;;2.65;1.10;;;;;;;;;;5052480;28;20051;-69
2023/12/06 13:10:19;;;;;;;;;;;;;;;;;;5055831;28;20495;-69
2023/12/06 13:12:45;;;;;;;4.20;1.23;;;;;;;;;;5053954;28;19931;-70
2023/12/06 13:15:11;;;;;;;0.95;0.95;;;;;;;;;;5055327;28;20645;-69
2023/12/06 13:17:37;;;;;;;1.10;1.00;;;;;;;;;;5056038;28;20032;-69
2023/12/06 13:20:07;;;;;;;1.20;1.10;;;;;;;;;;5054478;28;20540;-69
2023/12/06 13:22:33;;;;;;;1.40;1.30;;;;;;;;;;5057454;28;20072;-70
2023/12/06 13:24:58;;;;;;;1.10;1.00;;;;;;;;;;5054664;28;20142;-70
2023/12/06 13:27:23;;;;;;;1.20;1.10;;;;;;;;;;5052512;28;20068;-68
2023/12/06 13:29:49;;;;;;;4.60;1.20;;;;;;;;;;5053571;28;20052;-68
2023/12/06 13:32:14;;;;;;;1.75;1.65;;;;;;;;;;5056876;28;20059;-69
2023/12/06 13:34:42;;;;;;;1.77;1.63;;;;;;;;;;5056043;28;20036;-69
2023/12/06 13:37:08;;;;;;;1.33;1.23;;;;;;;;;;5046509;28;20049;-69
2023/12/06 13:39:34;;;;;;;1.50;1.40;;;;;;;;;;5055515;28;20274;-69
2023/12/06 13:42:00;;;;;;;2.67;1.33;;;;;;;;;;5056979;28;20143;-68
2023/12/06 13:44:25;;;;;;;1.52;1.42;;;;;;;;;;5039429;28;20072;-67
2023/12/06 13:46:51;;;;;;;1.15;0.95;;;;;;;;;;5055897;28;20047;-68
2023/12/06 13:49:18;;;;;;;3.38;1.58;;;;;;;;;;5058165;28;20489;-67
2023/12/06 13:51:44;;;;;;;1.75;1.42;;;;;;;;;;5057986;28;20047;-67
2023/12/06 13:54:10;;;;;;;1.88;1.65;;;;;;;;;;5038521;28;20143;-67
2023/12/06 13:56:36;;;;;;;1.50;1.40;;;;;;;;;;5057085;28;20048;-68
2023/12/06 13:59:02;;;;;;;1.55;1.45;;;;;;;;;;5056819;28;20067;-68
2023/12/06 14:01:28;;;;;;;1.60;1.50;;;;;;;;;;5057402;28;20044;-69
2023/12/06 14:03:55;;;;;;;1.50;1.40;;;;;;;;;;5057158;28;20742;-69
2023/12/06 14:06:24;;;;;;;1.50;1.40;;;;;;;;;;5057569;28;20036;-69
2023/12/06 14:08:50;;;;;;;2.72;1.30;;;;;;;;;;5055947;28;20978;-68
2023/12/06 14:11:16;;;;;;;1.38;1.27;;;;;;;;;;5037475;28;20047;-68
2023/12/06 14:13:42;;;;;;;1.48;1.38;;;;;;;;;;5056977;28;20041;-68
2023/12/06 14:16:07;;;;;;;1.70;1.58;;;;;;;;;;5057172;28;20043;-68
2023/12/06 14:18:33;;;;;;;2.33;1.52;;;;;;;;;;5056559;28;20495;-68
2023/12/06 14:21:00;;;;;;;1.60;1.50;;;;;;;;;;5056289;28;20052;-69
2023/12/06 14:23:26;;;;;;;1.52;1.42;;;;;;;;;;5056820;28;20106;-68
2023/12/06 14:25:51;;;;;;;1.50;1.40;;;;;;;;;;5057122;28;20036;-69
2023/12/06 14:28:17;;;;;;;1.60;1.50;;;;;;;;;;5056782;28;20028;-69
2023/12/06 14:30:42;;;;;;;1.60;1.50;;;;;;;;;;5055360;28;20122;-69
2023/12/06 14:33:08;;;;;;;1.80;1.70;;;;;;;;;;5055813;28;20433;-69
2023/12/06 14:35:33;;;;;;;2.10;1.50;;;;;;;;;;5056195;28;20047;-69
2023/12/06 14:37:59;;;;;;;1.75;1.60;;;;;;;;;;5055968;28;20072;-69